createdAt,value
2018-11-14T00:00:18.418Z,8.27
2018-11-14T00:02:47.121Z,11.57
2018-11-14T00:05:16.057Z,11.33
2018-11-14T00:07:44.942Z,12.47
2018-11-14T00:10:13.828Z,12.90
2018-11-14T00:12:42.515Z,14.60
2018-11-14T00:15:13.921Z,9.60
2018-11-14T00:17:43.773Z,13.63
2018-11-14T00:20:12.847Z,8.93
2018-11-14T00:22:42.764Z,13.70
2018-11-14T00:25:12.610Z,14.67
2018-11-14T00:27:41.414Z,17.60
2018-11-14T00:30:13.693Z,14.97
2018-11-14T00:32:42.746Z,11.00
2018-11-14T00:35:12.047Z,20.30
2018-11-14T00:37:41.233Z,15.40
2018-11-14T00:40:11.521Z,15.23
2018-11-14T00:42:40.723Z,13.60
2018-11-14T00:45:11.203Z,11.80
2018-11-14T00:47:41.417Z,13.90
2018-11-14T00:50:11.140Z,14.10
2018-11-14T00:52:40.153Z,13.20
2018-11-14T00:55:11.223Z,16.00
2018-11-14T00:57:39.994Z,13.93
2018-11-14T01:00:12.102Z,13.20
2018-11-14T01:02:41.305Z,15.03
2018-11-14T01:05:11.120Z,14.67
2018-11-14T01:07:40.098Z,14.53
2018-11-14T01:10:10.771Z,15.53
2018-11-14T01:12:39.899Z,12.47
2018-11-14T01:15:10.494Z,14.13
2018-11-14T01:17:39.425Z,14.13
2018-11-14T01:20:11.108Z,16.70
2018-11-14T01:22:40.196Z,13.07
2018-11-14T01:25:10.063Z,10.80
2018-11-14T01:27:38.847Z,13.53
2018-11-14T01:30:10.966Z,14.87
2018-11-14T01:32:40.173Z,11.70
2018-11-14T01:35:09.042Z,17.30
2018-11-14T01:37:37.726Z,16.23
2018-11-14T01:40:14.625Z,13.07
2018-11-14T01:42:43.887Z,13.50
2018-11-14T01:45:12.732Z,12.70
2018-11-14T01:47:41.496Z,10.00
2018-11-14T01:50:10.755Z,10.80
2018-11-14T01:52:39.706Z,11.43
2018-11-14T01:55:10.067Z,11.90
2018-11-14T01:57:38.817Z,14.00
2018-11-14T02:00:11.430Z,10.80
2018-11-14T02:02:40.680Z,12.13
2018-11-14T02:05:10.219Z,11.10
2018-11-14T02:07:39.075Z,13.17
2018-11-14T02:10:12.414Z,12.60
2018-11-14T02:12:41.605Z,11.37
2018-11-14T02:15:13.377Z,15.63
2018-11-14T02:17:42.178Z,11.33
2018-11-14T02:20:11.524Z,12.50
2018-11-14T02:22:40.754Z,12.77
2018-11-14T02:25:10.429Z,12.87
2018-11-14T02:27:39.177Z,11.67
2018-11-14T02:30:13.758Z,10.73
2018-11-14T02:32:42.514Z,10.77
2018-11-14T02:35:11.516Z,12.43
2018-11-14T02:37:41.422Z,12.13
2018-11-14T02:40:12.525Z,12.30
2018-11-14T02:42:41.526Z,12.97
2018-11-14T02:45:10.807Z,12.57
2018-11-14T02:47:39.572Z,14.53
2018-11-14T02:50:09.810Z,16.77
2018-11-14T02:52:38.563Z,16.37
2018-11-14T02:55:08.428Z,17.60
2018-11-14T02:57:37.130Z,15.27
2018-11-14T03:00:07.973Z,14.00
2018-11-14T03:02:36.782Z,16.50
2018-11-14T03:05:06.102Z,12.47
2018-11-14T03:07:35.061Z,10.77
2018-11-14T03:10:03.952Z,13.53
2018-11-14T03:12:32.837Z,14.07
2018-11-14T03:15:01.502Z,14.50
2018-11-14T03:17:30.227Z,12.43
2018-11-14T03:19:58.992Z,16.33
2018-11-14T03:22:27.730Z,14.00
2018-11-14T03:24:56.517Z,14.80
2018-11-14T03:27:25.301Z,15.63
2018-11-14T03:29:54.085Z,13.93
2018-11-14T03:32:22.889Z,13.73
2018-11-14T03:34:51.593Z,16.27
2018-11-14T03:37:20.746Z,15.73
2018-11-14T03:39:49.414Z,14.63
2018-11-14T03:42:18.143Z,11.30
2018-11-14T03:44:46.862Z,18.27
2018-11-14T03:47:15.590Z,14.20
2018-11-14T03:49:44.299Z,12.70
2018-11-14T03:52:12.990Z,13.00
2018-11-14T03:54:41.737Z,12.90
2018-11-14T03:57:10.566Z,15.40
2018-11-14T03:59:39.315Z,13.80
2018-11-14T04:02:08.210Z,13.00
2018-11-14T04:04:37.061Z,17.97
2018-11-14T04:07:06.362Z,16.57
2018-11-14T04:09:35.079Z,18.17
2018-11-14T04:12:03.897Z,18.30
2018-11-14T04:14:32.663Z,14.93
2018-11-14T04:17:01.408Z,18.07
2018-11-14T04:19:30.175Z,15.53
2018-11-14T04:21:58.987Z,11.30
2018-11-14T04:24:27.779Z,11.97
2018-11-14T04:26:56.554Z,15.33
2018-11-14T04:29:25.318Z,12.10
2018-11-14T04:31:54.109Z,14.13
2018-11-14T04:34:22.880Z,13.17
2018-11-14T04:36:51.661Z,12.07
2018-11-14T04:39:20.450Z,12.47
2018-11-14T04:41:49.113Z,12.27
2018-11-14T04:44:17.901Z,14.03
2018-11-14T04:46:46.639Z,12.73
2018-11-14T04:49:15.444Z,19.87
2018-11-14T04:51:44.177Z,13.30
2018-11-14T04:54:12.941Z,16.20
2018-11-14T04:56:42.706Z,15.27
2018-11-14T04:59:11.456Z,15.30
2018-11-14T05:01:40.211Z,15.20
2018-11-14T05:04:10.099Z,22.47
2018-11-14T05:06:38.847Z,15.37
2018-11-14T05:09:10.407Z,16.67
2018-11-14T05:11:39.157Z,16.83
2018-11-14T05:14:08.527Z,16.50
2018-11-14T05:16:37.310Z,20.07
2018-11-14T05:19:06.135Z,16.37
2018-11-14T05:21:35.369Z,32.40
2018-11-14T05:24:04.240Z,13.97
2018-11-14T05:26:33.085Z,15.00
2018-11-14T05:29:01.942Z,14.53
2018-11-14T05:31:30.874Z,16.30
2018-11-14T05:33:59.594Z,16.83
2018-11-14T05:36:28.374Z,15.90
2018-11-14T05:38:57.085Z,17.90
2018-11-14T05:41:25.870Z,12.93
2018-11-14T05:43:54.669Z,16.00
2018-11-14T05:46:23.456Z,16.77
2018-11-14T05:48:52.222Z,18.87
2018-11-14T05:51:21.015Z,19.43
2018-11-14T05:53:49.776Z,20.30
2018-11-14T05:56:18.561Z,19.67
2018-11-14T05:58:47.357Z,16.83
2018-11-14T06:01:16.316Z,18.43
2018-11-14T06:03:45.135Z,18.53
2018-11-14T06:06:13.967Z,18.33
2018-11-14T06:08:44.087Z,18.17
2018-11-14T06:11:13.900Z,19.57
2018-11-14T06:13:42.658Z,20.97
2018-11-14T06:16:11.411Z,18.77
2018-11-14T06:18:40.246Z,20.00
2018-11-14T06:21:10.156Z,19.50
2018-11-14T06:23:39.084Z,24.17
2018-11-14T06:26:07.897Z,19.73
2018-11-14T06:28:37.730Z,19.77
2018-11-14T06:31:06.636Z,16.30
2018-11-14T06:33:35.473Z,24.40
2018-11-14T06:36:04.425Z,15.97
2018-11-14T06:38:33.323Z,19.33
2018-11-14T06:41:02.207Z,22.27
2018-11-14T06:43:31.348Z,21.90
2018-11-14T06:46:00.264Z,32.53
2018-11-14T06:48:29.220Z,30.03
2018-11-14T06:50:58.140Z,37.90
2018-11-14T06:53:27.005Z,36.57
2018-11-14T06:55:55.910Z,54.70
2018-11-14T06:58:24.807Z,48.07
2018-11-14T07:00:53.818Z,171.73
2018-11-14T07:03:22.731Z,128.67
2018-11-14T07:05:51.675Z,143.27
2018-11-14T07:08:21.441Z,107.90
2018-11-14T07:10:50.322Z,223.43
2018-11-14T07:13:19.205Z,221.50
2018-11-14T07:15:48.285Z,202.37
2018-11-14T07:18:17.077Z,278.33
2018-11-14T07:20:46.066Z,209.37
2018-11-14T07:23:14.921Z,312.97
2018-11-14T07:25:43.741Z,305.17
2018-11-14T07:28:12.627Z,235.53
2018-11-14T07:30:41.471Z,336.40
2018-11-14T07:33:11.169Z,307.60
2018-11-14T07:35:41.035Z,184.20
2018-11-14T07:38:46.087Z,205.97
2018-11-14T07:41:20.406Z,292.67
2018-11-14T07:43:49.253Z,290.20
2018-11-14T07:46:18.214Z,208.43
2018-11-14T07:48:48.154Z,195.27
2018-11-14T07:51:17.081Z,112.17
2018-11-14T07:53:45.936Z,173.27
2018-11-14T07:56:14.837Z,185.43
2018-11-14T07:58:44.649Z,204.00
2018-11-14T08:01:13.602Z,122.37
2018-11-14T08:03:42.381Z,152.43
2018-11-14T08:06:12.172Z,160.20
2018-11-14T08:08:41.126Z,112.33
2018-11-14T08:11:10.069Z,117.17
2018-11-14T08:13:40.304Z,143.70
2018-11-14T08:16:09.083Z,129.07
2018-11-14T08:18:38.040Z,142.37
2018-11-14T08:21:07.263Z,119.83
2018-11-14T08:23:36.077Z,107.43
2018-11-14T08:26:05.005Z,71.27
2018-11-14T08:28:33.914Z,67.43
2018-11-14T08:31:03.008Z,56.20
2018-11-14T08:33:31.860Z,60.47
2018-11-14T08:36:00.640Z,97.13
2018-11-14T08:38:29.520Z,78.77
2018-11-14T08:40:58.365Z,69.90
2018-11-14T08:43:27.149Z,51.77
2018-11-14T08:45:55.920Z,51.33
2018-11-14T08:48:24.839Z,66.47
2018-11-14T08:50:53.647Z,109.80
2018-11-14T08:53:22.609Z,45.30
2018-11-14T08:55:51.451Z,61.07
2018-11-14T08:58:21.273Z,59.77
2018-11-14T09:00:50.053Z,55.90
2018-11-14T09:03:18.946Z,39.83
2018-11-14T09:05:47.946Z,35.23
2018-11-14T09:08:16.717Z,44.43
2018-11-14T09:10:45.551Z,30.20
2018-11-14T09:13:15.686Z,25.17
2018-11-14T09:15:45.546Z,29.37
2018-11-14T09:18:14.675Z,23.00
2018-11-14T09:20:43.523Z,21.53
2018-11-14T09:23:12.654Z,23.47
2018-11-14T09:25:41.623Z,25.43
2018-11-14T09:28:10.472Z,22.57
2018-11-14T09:30:39.316Z,27.83
2018-11-14T09:33:08.226Z,22.57
2018-11-14T09:35:37.281Z,28.03
2018-11-14T09:38:06.149Z,25.43
2018-11-14T09:40:35.032Z,25.67
2018-11-14T09:43:03.883Z,29.40
2018-11-14T09:45:32.813Z,29.17
2018-11-14T09:48:01.590Z,27.00
2018-11-14T09:50:31.599Z,25.53
2018-11-14T09:53:02.798Z,28.07
2018-11-14T09:55:31.648Z,26.03
2018-11-14T09:58:00.486Z,28.40
2018-11-14T10:00:33.644Z,29.77
2018-11-14T10:03:07.646Z,30.27
2018-11-14T10:05:36.615Z,23.73
2018-11-14T10:08:05.851Z,24.63
2018-11-14T10:10:34.847Z,24.67
2018-11-14T10:13:03.854Z,25.93
2018-11-14T10:15:32.852Z,27.40
2018-11-14T10:18:01.664Z,28.33
2018-11-14T10:20:30.623Z,29.13
2018-11-14T10:22:59.476Z,33.93
2018-11-14T10:25:28.324Z,26.77
2018-11-14T10:27:57.182Z,34.57
2018-11-14T10:30:27.245Z,30.73
2018-11-14T10:32:56.168Z,28.97
2018-11-14T10:35:25.064Z,31.60
2018-11-14T10:37:53.996Z,33.97
2018-11-14T10:40:25.040Z,29.20
2018-11-14T10:42:53.983Z,31.67
2018-11-14T10:45:23.917Z,30.30
2018-11-14T10:47:52.720Z,28.33
2018-11-14T10:50:22.738Z,36.23
2018-11-14T10:52:51.544Z,32.50
2018-11-14T10:55:20.935Z,35.13
2018-11-14T10:57:49.960Z,35.37
2018-11-14T11:00:29.092Z,32.93
2018-11-14T11:03:05.112Z,33.50
2018-11-14T11:05:39.018Z,32.33
2018-11-14T11:08:13.402Z,34.97
2018-11-14T11:10:47.262Z,38.60
2018-11-14T11:13:21.248Z,31.93
2018-11-14T11:15:55.268Z,40.07
2018-11-14T11:21:17.999Z,38.57
2018-11-14T11:23:46.940Z,39.27
2018-11-14T11:26:15.981Z,37.50
2018-11-14T11:28:44.946Z,41.00
2018-11-14T11:31:13.966Z,39.70
2018-11-14T11:33:42.832Z,42.27
2018-11-14T11:36:12.684Z,32.10
2018-11-14T11:38:42.527Z,49.37
2018-11-14T11:41:11.327Z,42.13
2018-11-14T11:43:40.501Z,35.60
2018-11-14T11:46:09.469Z,37.60
2018-11-14T11:48:38.337Z,33.23
2018-11-14T11:51:07.631Z,42.20
2018-11-14T11:53:36.592Z,32.90
2018-11-14T11:56:06.055Z,30.23
2018-11-14T11:58:35.250Z,27.53
2018-11-14T12:01:03.987Z,29.93
2018-11-14T12:03:32.843Z,32.20
2018-11-14T12:06:02.057Z,35.10
2018-11-14T12:08:31.011Z,39.83
2018-11-14T12:10:59.848Z,41.93
2018-11-14T12:13:28.654Z,40.80
2018-11-14T12:16:00.124Z,37.77
2018-11-14T12:18:29.558Z,35.27
2018-11-14T12:20:58.782Z,37.27
2018-11-14T12:23:27.777Z,33.27
2018-11-14T12:25:56.795Z,34.10
2018-11-14T12:28:26.069Z,39.77
2018-11-14T12:30:54.975Z,37.20
2018-11-14T12:33:24.204Z,44.03
2018-11-14T12:35:53.154Z,34.73
2018-11-14T12:38:23.241Z,35.70
2018-11-14T12:40:52.083Z,37.20
2018-11-14T12:43:21.964Z,41.03
2018-11-14T12:45:50.732Z,33.13
2018-11-14T12:48:19.524Z,31.03
2018-11-14T12:50:48.393Z,30.47
2018-11-14T12:53:17.185Z,29.90
2018-11-14T12:55:46.063Z,32.50
2018-11-14T12:58:15.173Z,31.37
2018-11-14T13:00:44.146Z,31.90
2018-11-14T13:03:13.063Z,34.00
2018-11-14T13:05:42.061Z,33.73
2018-11-14T13:08:10.839Z,36.93
2018-11-14T13:10:39.521Z,32.13
2018-11-14T13:13:08.238Z,33.40
2018-11-14T13:15:36.916Z,29.07
2018-11-14T13:18:09.689Z,30.67
2018-11-14T13:20:38.475Z,32.10
2018-11-14T13:23:07.236Z,32.93
2018-11-14T13:25:36.027Z,35.73
2018-11-14T13:28:04.971Z,35.37
2018-11-14T13:30:33.649Z,33.10
2018-11-14T13:33:02.437Z,31.10
2018-11-14T13:35:31.226Z,38.73
2018-11-14T13:37:59.969Z,36.57
2018-11-14T13:40:28.771Z,34.37
2018-11-14T13:42:57.607Z,35.23
2018-11-14T13:45:26.280Z,37.43
2018-11-14T13:47:55.093Z,41.20
2018-11-14T13:50:23.995Z,37.17
2018-11-14T13:52:52.640Z,39.10
2018-11-14T13:55:21.844Z,36.67
2018-11-14T13:57:51.651Z,36.30
2018-11-14T14:00:21.603Z,41.20
2018-11-14T14:02:51.317Z,32.30
2018-11-14T14:05:21.245Z,37.63
2018-11-14T14:07:49.935Z,39.73
2018-11-14T14:10:18.988Z,38.13
2018-11-14T14:12:49.901Z,42.70
2018-11-14T14:15:19.914Z,40.67
2018-11-14T14:17:49.240Z,42.73
2018-11-14T14:20:18.589Z,37.27
2018-11-14T14:22:47.537Z,42.20
2018-11-14T14:25:17.424Z,36.63
2018-11-14T14:27:46.242Z,37.63
2018-11-14T14:30:17.068Z,36.70
2018-11-14T14:32:46.378Z,45.20
2018-11-14T14:35:16.186Z,36.43
2018-11-14T14:37:45.171Z,43.40
2018-11-14T14:40:17.303Z,41.00
2018-11-14T14:42:46.324Z,38.43
2018-11-14T14:45:16.552Z,40.30
2018-11-14T14:47:45.296Z,36.67
2018-11-14T14:50:15.257Z,40.80
2018-11-14T14:52:44.581Z,38.67
2018-11-14T14:55:15.713Z,39.60
2018-11-14T14:57:45.092Z,37.33
2018-11-14T15:00:17.676Z,38.33
2018-11-14T15:02:46.491Z,37.97
2018-11-14T15:05:15.402Z,36.93
2018-11-14T15:07:44.172Z,47.03
2018-11-14T15:10:14.821Z,43.63
2018-11-14T15:12:43.558Z,43.07
2018-11-14T15:15:13.036Z,44.87
2018-11-14T15:17:41.994Z,49.80
2018-11-14T15:20:13.170Z,44.60
2018-11-14T15:22:42.199Z,40.37
2018-11-14T15:25:12.698Z,41.43
2018-11-14T15:27:42.026Z,45.80
2018-11-14T15:30:14.538Z,47.07
2018-11-14T15:32:43.222Z,45.40
2018-11-14T15:35:12.765Z,46.53
2018-11-14T15:37:41.650Z,49.30
2018-11-14T15:40:12.615Z,42.47
2018-11-14T15:42:41.662Z,39.03
2018-11-14T15:45:13.256Z,48.87
2018-11-14T15:47:42.338Z,44.43
2018-11-14T15:50:18.004Z,47.60
2018-11-14T15:52:47.970Z,50.20
2018-11-14T15:55:17.901Z,50.13
2018-11-14T15:57:46.938Z,48.00
2018-11-14T16:00:19.814Z,51.20
2018-11-14T16:02:48.805Z,50.90
2018-11-14T16:05:19.037Z,47.53
2018-11-14T16:07:49.292Z,49.40
2018-11-14T16:10:19.458Z,54.43
2018-11-14T16:12:48.425Z,59.00
2018-11-14T16:15:18.809Z,51.73
2018-11-14T16:17:47.804Z,58.30
2018-11-14T16:20:24.248Z,52.00
2018-11-14T16:22:53.433Z,58.00
2018-11-14T16:25:24.262Z,56.63
2018-11-14T16:27:54.637Z,59.23
2018-11-14T16:30:40.001Z,52.40
2018-11-14T16:33:09.230Z,58.50
2018-11-14T16:35:38.273Z,64.83
2018-11-14T16:38:07.329Z,59.23
2018-11-14T16:40:36.294Z,57.00
2018-11-14T16:43:07.711Z,57.10
2018-11-14T16:45:36.646Z,47.60
2018-11-14T16:48:05.463Z,48.47
2018-11-14T16:50:34.292Z,52.90
2018-11-14T16:53:03.175Z,49.80
2018-11-14T16:55:32.211Z,52.07
2018-11-14T16:58:01.257Z,52.13
2018-11-14T17:00:32.264Z,53.70
2018-11-14T17:03:01.251Z,47.40
2018-11-14T17:05:32.037Z,50.50
2018-11-14T17:08:01.236Z,53.17
2018-11-14T17:10:31.469Z,51.03
2018-11-14T17:13:01.275Z,54.93
2018-11-14T17:15:30.216Z,51.90
2018-11-14T17:17:58.988Z,56.40
2018-11-14T17:20:27.864Z,53.87
2018-11-14T17:22:56.866Z,52.47
2018-11-14T17:25:25.831Z,54.60
2018-11-14T17:27:54.768Z,54.83
2018-11-14T17:30:25.803Z,52.87
2018-11-14T17:32:54.965Z,54.77
2018-11-14T17:35:24.041Z,58.80
2018-11-14T17:37:52.980Z,56.73
2018-11-14T17:40:24.579Z,61.70
2018-11-14T17:42:54.012Z,59.10
2018-11-14T17:45:25.077Z,57.33
2018-11-14T17:47:54.337Z,70.57
2018-11-14T17:50:25.780Z,70.07
2018-11-14T17:52:55.363Z,71.57
2018-11-14T17:55:24.744Z,76.47
2018-11-14T17:57:53.988Z,84.23
2018-11-14T18:00:25.033Z,74.67
2018-11-14T18:02:54.062Z,83.13
2018-11-14T18:05:25.691Z,77.67
2018-11-14T18:07:55.147Z,73.40
2018-11-14T18:10:26.697Z,73.97
2018-11-14T18:12:57.048Z,79.10
2018-11-14T18:15:26.055Z,82.77
2018-11-14T18:17:55.647Z,81.87
2018-11-14T18:20:26.082Z,84.67
2018-11-14T18:22:55.269Z,80.70
2018-11-14T18:25:24.405Z,85.43
2018-11-14T18:27:53.433Z,84.17
2018-11-14T18:30:25.440Z,77.40
2018-11-14T18:32:55.172Z,88.83
2018-11-14T18:35:24.765Z,64.83
2018-11-14T18:37:55.662Z,62.83
2018-11-14T18:40:29.184Z,64.13
2018-11-14T18:42:58.295Z,72.90
2018-11-14T18:45:32.662Z,67.33
2018-11-14T18:48:02.548Z,70.00
2018-11-14T18:50:32.668Z,74.07
2018-11-14T18:53:01.758Z,74.37
2018-11-14T18:55:32.246Z,66.17
2018-11-14T18:58:02.242Z,77.73
2018-11-14T19:00:32.988Z,84.87
2018-11-14T19:03:02.395Z,84.90
2018-11-14T19:05:31.975Z,94.93
2018-11-14T19:08:01.350Z,81.53
2018-11-14T19:10:32.279Z,74.50
2018-11-14T19:13:01.375Z,78.73
2018-11-14T19:15:31.693Z,79.67
2018-11-14T19:18:00.701Z,73.27
2018-11-14T19:20:31.019Z,77.87
2018-11-14T19:23:00.458Z,79.30
2018-11-14T19:25:30.775Z,92.43
2018-11-14T19:27:59.958Z,91.10
2018-11-14T19:30:30.520Z,85.77
2018-11-14T19:33:00.280Z,87.93
2018-11-14T19:35:29.321Z,85.67
2018-11-14T19:37:58.766Z,101.73
2018-11-14T19:40:29.310Z,98.40
2018-11-14T19:42:59.851Z,93.73
2018-11-14T19:45:32.717Z,98.33
2018-11-14T19:48:01.995Z,94.10
2018-11-14T19:50:31.375Z,84.57
2018-11-14T19:53:00.507Z,95.17
2018-11-14T19:55:30.010Z,86.90
2018-11-14T19:58:01.463Z,89.67
2018-11-14T20:00:32.852Z,97.27
2018-11-14T20:03:01.993Z,98.10
2018-11-14T20:05:31.428Z,97.53
2018-11-14T20:08:00.742Z,106.20
2018-11-14T20:10:31.366Z,96.40
2018-11-14T20:13:01.517Z,104.43
2018-11-14T20:15:32.324Z,104.07
2018-11-14T20:18:01.819Z,93.53
2018-11-14T20:20:32.302Z,85.90
2018-11-14T20:23:01.397Z,90.77
2018-11-14T20:25:30.844Z,86.97
2018-11-14T20:27:59.958Z,99.17
2018-11-14T20:30:30.282Z,107.90
2018-11-14T20:33:00.706Z,92.13
2018-11-14T20:35:30.324Z,92.23
2018-11-14T20:37:59.603Z,89.63
2018-11-14T20:40:33.507Z,108.20
2018-11-14T20:43:02.685Z,105.70
2018-11-14T20:45:33.154Z,90.30
2018-11-14T20:48:02.451Z,95.03
2018-11-14T20:50:31.562Z,76.20
2018-11-14T20:53:02.380Z,82.50
2018-11-14T20:55:32.073Z,75.60
2018-11-14T20:58:02.826Z,60.33
2018-11-14T21:00:34.189Z,77.37
2018-11-14T21:03:03.343Z,63.80
2018-11-14T21:05:32.804Z,68.97
2018-11-14T21:08:02.075Z,70.87
2018-11-14T21:10:32.357Z,73.63
2018-11-14T21:13:02.105Z,68.17
2018-11-14T21:15:32.918Z,61.97
2018-11-14T21:18:02.450Z,59.60
2018-11-14T21:20:34.383Z,67.33
2018-11-14T21:23:03.573Z,69.13
2018-11-14T21:25:32.528Z,68.83
2018-11-14T21:28:01.369Z,63.73
2018-11-14T21:30:31.348Z,70.67
2018-11-14T21:33:00.332Z,70.30
2018-11-14T21:35:33.269Z,68.77
2018-11-14T21:38:04.823Z,57.30
2018-11-14T21:40:33.808Z,53.90
2018-11-14T21:43:03.210Z,64.47
2018-11-14T21:45:32.652Z,58.43
2018-11-14T21:48:06.830Z,57.77
2018-11-14T21:50:35.915Z,54.50
2018-11-14T21:53:05.139Z,62.37
2018-11-14T21:55:34.516Z,49.17
2018-11-14T21:58:03.650Z,57.27
2018-11-14T22:00:33.858Z,57.27
2018-11-14T22:03:03.856Z,54.00
2018-11-14T22:05:33.169Z,55.63
2018-11-14T22:08:02.345Z,63.50
2018-11-14T22:10:31.364Z,58.10
2018-11-14T22:13:00.354Z,51.80
2018-11-14T22:15:30.092Z,50.03
2018-11-14T22:17:59.104Z,49.13
2018-11-14T22:20:28.457Z,46.17
2018-11-14T22:22:57.467Z,48.37
2018-11-14T22:25:27.562Z,47.93
2018-11-14T22:27:56.658Z,48.60
2018-11-14T22:30:27.250Z,52.30
2018-11-14T22:32:57.297Z,45.80
2018-11-14T22:35:27.385Z,45.03
2018-11-14T22:37:56.271Z,51.63
2018-11-14T22:40:27.456Z,50.07
2018-11-14T22:42:56.514Z,53.87
2018-11-14T22:45:30.956Z,53.00
2018-11-14T22:47:59.904Z,51.60
2018-11-14T22:50:29.175Z,52.07
2018-11-14T22:52:58.132Z,59.70
2018-11-14T22:55:27.380Z,63.63
2018-11-14T22:57:56.385Z,58.23
2018-11-14T23:00:28.123Z,52.23
2018-11-14T23:02:59.279Z,54.97
2018-11-14T23:05:28.333Z,64.33
2018-11-14T23:07:57.976Z,63.83
2018-11-14T23:10:27.323Z,60.50
2018-11-14T23:12:56.380Z,54.60
2018-11-14T23:15:25.728Z,63.27
2018-11-14T23:17:54.667Z,61.40
2018-11-14T23:20:23.645Z,63.43
2018-11-14T23:22:53.192Z,65.20
2018-11-14T23:25:22.660Z,70.40
2018-11-14T23:27:52.670Z,66.70
2018-11-14T23:30:22.780Z,61.07
2018-11-14T23:32:52.589Z,59.50
2018-11-14T23:35:24.419Z,56.67
2018-11-14T23:37:56.533Z,64.67
2018-11-14T23:40:25.467Z,61.37
2018-11-14T23:42:54.495Z,67.53
2018-11-14T23:45:24.237Z,73.43
2018-11-14T23:47:53.173Z,71.73
2018-11-14T23:50:24.165Z,63.10
2018-11-14T23:52:54.005Z,66.97
2018-11-14T23:55:23.726Z,55.20
2018-11-14T23:57:52.725Z,63.97
